Al Azamiyah, Iraq
Current Conditions -  °F | °C
As of 3:30 PM on Friday 24 Oct 2014 (Local Time) from ORBI Reporting Station
Clear Clear  
Wind Chill: 86°   Ceiling: Unl
Heat Index: 86°   Visibility: 6mi
Dew Point: 48°   Wind: 7mph
Humidity: 27%   Direction: 20°NNE
Pressure: 29.94"   Gusts: NA
Location:  33.38°N, 44.37°E
Report Text: ORBI 241230Z 02006KT 330V050 CAVOK 30/09 Q1014
Loading
Personal Weather Stations






























Interactive Weather Map
Tropical Storm Tracking
New forecast layout! Learn more

10-Day Weather Forecast

Advertisements
Track Severe Weather on mobile